createdAt,value
2023-04-05T00:00:46.197Z,717.28
2023-04-05T00:05:50.117Z,715.80
2023-04-05T00:10:53.178Z,718.90
2023-04-05T00:15:58.291Z,725.80
2023-04-05T00:21:01.658Z,718.22
2023-04-05T00:26:03.631Z,715.20
2023-04-05T00:31:06.125Z,719.28
2023-04-05T00:36:12.230Z,722.25
2023-04-05T00:41:14.527Z,720.30
2023-04-05T00:46:17.036Z,715.38
2023-04-05T00:51:20.257Z,714.25
2023-04-05T00:56:23.001Z,711.20
2023-04-05T01:01:26.538Z,714.13
2023-04-05T01:06:50.516Z,718.92
2023-04-05T01:11:56.803Z,717.95
2023-04-05T01:16:58.856Z,718.88
2023-04-05T01:22:14.417Z,712.20
2023-04-05T01:27:36.537Z,719.80
2023-04-05T01:33:02.555Z,716.35
2023-04-05T01:38:07.306Z,714.05
2023-04-05T01:43:18.898Z,713.10
2023-04-05T01:48:21.137Z,711.03
2023-04-05T01:53:23.085Z,718.60
2023-04-05T01:58:28.198Z,710.55
2023-04-05T02:03:30.182Z,709.78
2023-04-05T02:08:32.153Z,705.08
2023-04-05T02:13:34.154Z,703.33
2023-04-05T02:18:38.684Z,687.72
2023-04-05T02:23:40.587Z,696.28
2023-04-05T02:28:42.463Z,698.35
2023-04-05T02:33:44.384Z,707.00
2023-04-05T02:38:46.310Z,717.08
2023-04-05T02:43:48.292Z,714.20
2023-04-05T02:48:50.340Z,709.78
2023-04-05T02:53:54.240Z,709.55
2023-04-05T02:58:56.166Z,710.92
2023-04-05T03:04:00.390Z,717.40
2023-04-05T03:09:04.695Z,713.65
2023-04-05T03:14:06.685Z,711.33
2023-04-05T03:19:13.164Z,709.63
2023-04-05T03:24:19.654Z,707.40
2023-04-05T03:29:22.421Z,707.97
2023-04-05T03:34:30.794Z,704.88
2023-04-05T03:39:38.576Z,714.35
2023-04-05T03:44:40.635Z,704.20
2023-04-05T03:49:42.555Z,708.70
2023-04-05T03:54:45.417Z,705.08
2023-04-05T03:59:50.723Z,705.70
2023-04-05T04:04:53.761Z,705.92
2023-04-05T04:09:56.565Z,705.42
2023-04-05T04:14:58.911Z,704.92
2023-04-05T04:20:39.674Z,711.50
2023-04-05T04:26:04.680Z,704.97
2023-04-05T04:31:27.516Z,702.97
2023-04-05T04:36:35.173Z,705.63
2023-04-05T04:41:56.013Z,706.75
2023-04-05T04:47:17.446Z,692.17
2023-04-05T04:52:23.735Z,695.30
2023-04-05T04:57:25.807Z,689.40
2023-04-05T05:02:30.977Z,689.10
2023-04-05T05:07:33.644Z,691.17
2023-04-05T05:12:35.636Z,692.92
2023-04-05T05:17:39.371Z,692.75
2023-04-05T05:22:42.390Z,689.75
2023-04-05T05:27:44.240Z,689.65
2023-04-05T05:32:46.554Z,697.95
2023-04-05T05:37:48.401Z,690.80
2023-04-05T05:42:50.817Z,691.70
2023-04-05T05:47:52.716Z,699.70
2023-04-05T05:52:54.735Z,694.63
2023-04-05T05:57:56.772Z,698.95
2023-04-05T06:02:59.387Z,692.80
2023-04-05T06:08:02.692Z,697.08
2023-04-05T06:13:04.523Z,698.97
2023-04-05T06:18:06.808Z,700.35
2023-04-05T06:23:08.751Z,697.17
2023-04-05T06:28:10.993Z,698.30
2023-04-05T06:33:12.886Z,705.88
2023-04-05T06:38:17.936Z,695.95
2023-04-05T06:43:19.770Z,698.03
2023-04-05T06:48:24.564Z,704.80
2023-04-05T06:53:27.719Z,710.15
2023-04-05T06:58:30.013Z,709.97
2023-04-05T07:03:32.683Z,707.85
2023-04-05T07:08:34.587Z,705.50
2023-04-05T07:13:36.486Z,703.83
2023-04-05T07:18:38.388Z,720.10
2023-04-05T07:23:40.605Z,712.35
2023-04-05T07:28:42.413Z,721.08
2023-04-05T07:33:45.737Z,719.40
2023-04-05T07:38:47.609Z,714.35
2023-04-05T07:43:49.989Z,723.10
2023-04-05T07:48:51.887Z,722.15
2023-04-05T07:53:53.752Z,730.78
2023-04-05T07:58:55.627Z,737.47
2023-04-05T08:03:57.961Z,733.63
2023-04-05T08:09:00.042Z,741.10
2023-04-05T08:14:01.937Z,738.08
2023-04-05T08:19:03.807Z,742.53
2023-04-05T08:24:06.815Z,741.35
2023-04-05T08:29:08.702Z,740.33
2023-04-05T08:34:10.646Z,742.83
2023-04-05T08:39:12.906Z,749.28
2023-04-05T08:44:17.156Z,743.92
2023-04-05T08:49:18.994Z,744.50
2023-04-05T08:54:21.326Z,757.58
2023-04-05T08:59:24.759Z,751.80
2023-04-05T09:04:31.562Z,755.25
2023-04-05T09:09:36.377Z,762.20
2023-04-05T09:14:39.198Z,763.45
2023-04-05T09:19:41.334Z,771.75
2023-04-05T09:24:44.232Z,767.50
2023-04-05T09:29:48.880Z,770.67
2023-04-05T09:34:54.064Z,769.40
2023-04-05T09:40:04.758Z,771.72
2023-04-05T09:45:07.398Z,769.85
2023-04-05T09:50:25.530Z,762.72
2023-04-05T09:55:29.346Z,765.45
2023-04-05T10:00:32.436Z,767.80
2023-04-05T10:05:34.389Z,767.58
2023-04-05T10:10:46.422Z,773.47
2023-04-05T10:15:53.245Z,776.42
2023-04-05T10:20:58.022Z,776.28
2023-04-05T10:26:16.983Z,771.13
2023-04-05T10:31:42.126Z,773.67
2023-04-05T10:36:56.963Z,774.35
2023-04-05T10:42:08.064Z,779.38
2023-04-05T10:47:14.005Z,784.08
2023-04-05T10:52:18.019Z,779.45
2023-04-05T10:57:21.075Z,776.67
2023-04-05T11:02:23.409Z,784.55
2023-04-05T11:07:25.521Z,778.33
2023-04-05T11:12:48.969Z,771.60
2023-04-05T11:18:03.713Z,777.00
2023-04-05T11:23:05.956Z,776.78
2023-04-05T11:28:08.917Z,772.25
2023-04-05T11:33:11.257Z,771.35
2023-04-05T11:38:22.219Z,768.90
2023-04-05T11:43:27.887Z,771.58
2023-04-05T11:48:29.941Z,776.80
2023-04-05T11:53:31.827Z,772.13
2023-04-05T11:58:34.118Z,772.97
2023-04-05T12:03:37.375Z,783.03
2023-04-05T12:08:50.454Z,782.33
2023-04-05T12:14:02.462Z,780.03
2023-04-05T12:19:04.260Z,780.35
2023-04-05T12:24:06.411Z,774.75
2023-04-05T12:29:08.236Z,780.53
2023-04-05T12:34:12.088Z,777.95
2023-04-05T12:39:16.499Z,776.05
2023-04-05T12:44:31.520Z,776.10
2023-04-05T12:49:39.549Z,778.30
2023-04-05T12:54:41.396Z,784.17
2023-04-05T12:59:43.233Z,774.55
2023-04-05T13:04:45.218Z,780.92
2023-04-05T13:09:47.733Z,795.60
2023-04-05T13:14:49.997Z,789.53
2023-04-05T13:19:51.853Z,781.38
2023-04-05T13:24:53.982Z,780.53
2023-04-05T13:29:55.902Z,788.35
2023-04-05T13:34:57.740Z,785.13
2023-04-05T13:39:59.711Z,786.38
2023-04-05T13:45:01.521Z,778.80
2023-04-05T13:50:04.327Z,779.20
2023-04-05T13:55:06.684Z,777.30
2023-04-05T14:00:09.346Z,773.92
2023-04-05T14:05:15.497Z,776.35
2023-04-05T14:10:17.835Z,782.55
2023-04-05T14:15:19.745Z,786.38
2023-04-05T14:20:21.800Z,781.70
2023-04-05T14:25:23.685Z,787.30
2023-04-05T14:30:26.175Z,787.00
2023-04-05T14:35:28.116Z,776.28
2023-04-05T14:40:30.035Z,779.65
2023-04-05T14:45:32.592Z,774.28
2023-04-05T14:50:34.544Z,775.70
2023-04-05T14:55:37.135Z,770.58
2023-04-05T15:00:40.665Z,779.28
2023-04-05T15:05:43.225Z,774.42
2023-04-05T15:10:46.078Z,776.67
2023-04-05T15:15:47.929Z,771.15
2023-04-05T15:20:50.147Z,768.67
2023-04-05T15:25:52.062Z,777.75
2023-04-05T15:30:54.028Z,765.75
2023-04-05T15:35:56.116Z,766.22
2023-04-05T15:40:58.281Z,763.05
2023-04-05T15:46:00.341Z,761.97
2023-04-05T15:51:02.304Z,774.00
2023-04-05T15:56:04.471Z,767.33
2023-04-05T16:01:06.637Z,764.72
2023-04-05T16:06:08.727Z,765.53
2023-04-05T16:11:10.749Z,772.85
2023-04-05T16:16:17.684Z,766.40
2023-04-05T16:21:26.609Z,766.38
2023-04-05T16:26:28.590Z,772.30
2023-04-05T16:31:30.748Z,766.97
2023-04-05T16:36:32.606Z,771.33
2023-04-05T16:41:42.060Z,772.08
2023-04-05T16:46:46.043Z,767.25
2023-04-05T16:51:48.369Z,763.58
2023-04-05T16:56:50.302Z,763.17
2023-04-05T17:01:52.287Z,758.30
2023-04-05T17:06:54.286Z,760.40
2023-04-05T17:11:56.459Z,767.08
2023-04-05T17:17:00.658Z,764.63
2023-04-05T17:22:02.591Z,764.72
2023-04-05T17:27:04.962Z,762.78
2023-04-05T17:32:07.121Z,761.75
2023-04-05T17:37:09.030Z,758.53
2023-04-05T17:42:11.099Z,761.58
2023-04-05T17:47:13.080Z,758.50
2023-04-05T17:52:15.016Z,760.47
2023-04-05T17:57:17.031Z,753.20
2023-04-05T18:02:18.981Z,760.90
2023-04-05T18:07:21.113Z,769.53
2023-04-05T18:12:23.029Z,767.15
2023-04-05T18:17:24.927Z,760.40
2023-04-05T18:22:27.680Z,759.08
2023-04-05T18:27:31.746Z,753.75
2023-04-05T18:32:33.654Z,756.53
2023-04-05T18:37:36.473Z,755.63
2023-04-05T18:42:39.841Z,754.47
2023-04-05T18:47:41.764Z,749.63
2023-04-05T18:52:43.673Z,752.00
2023-04-05T18:57:45.608Z,751.33
2023-04-05T19:02:47.540Z,751.28
2023-04-05T19:07:49.449Z,752.53
2023-04-05T19:12:51.394Z,752.38
2023-04-05T19:17:53.447Z,754.20
2023-04-05T19:22:55.445Z,747.47
2023-04-05T19:27:57.771Z,749.15
2023-04-05T19:32:59.674Z,748.05
2023-04-05T19:38:03.292Z,745.00
2023-04-05T19:43:05.418Z,747.10
2023-04-05T19:48:40.637Z,748.47
2023-04-05T19:53:50.644Z,747.25
2023-04-05T19:59:27.035Z,736.85
2023-04-05T20:04:29.140Z,737.95
2023-04-05T20:09:31.574Z,733.00
2023-04-05T20:14:46.408Z,733.80
2023-04-05T20:20:00.723Z,736.15
2023-04-05T20:25:38.879Z,731.20
2023-04-05T20:30:40.904Z,736.05
2023-04-05T20:35:43.021Z,735.08
2023-04-05T20:40:45.215Z,741.45
2023-04-05T20:45:47.431Z,733.65
2023-04-05T20:50:49.303Z,736.35
2023-04-05T20:55:52.245Z,737.10
2023-04-05T21:00:54.743Z,741.65
2023-04-05T21:05:57.640Z,739.40
2023-04-05T21:10:59.688Z,734.33
2023-04-05T21:16:02.321Z,732.03
2023-04-05T21:21:05.030Z,730.95
2023-04-05T21:26:07.346Z,727.90
2023-04-05T21:31:09.350Z,740.63
2023-04-05T21:36:11.395Z,736.28
2023-04-05T21:41:13.277Z,729.95
2023-04-05T21:46:18.839Z,728.35
2023-04-05T21:51:22.395Z,725.88
2023-04-05T21:56:24.288Z,727.65
2023-04-05T22:01:26.222Z,723.65
2023-04-05T22:06:28.102Z,724.53
2023-04-05T22:11:30.004Z,731.33
2023-04-05T22:16:32.013Z,729.65
2023-04-05T22:21:33.936Z,720.03
2023-04-05T22:26:35.818Z,723.58
2023-04-05T22:31:37.806Z,732.70
2023-04-05T22:36:39.671Z,725.80
2023-04-05T22:41:41.746Z,718.85
2023-04-05T22:46:43.598Z,715.13
2023-04-05T22:51:45.636Z,717.53
2023-04-05T22:56:47.470Z,719.30
2023-04-05T23:01:49.384Z,722.17
2023-04-05T23:06:52.709Z,722.47
2023-04-05T23:11:54.607Z,719.10
2023-04-05T23:16:56.504Z,718.55
2023-04-05T23:21:58.774Z,722.03
2023-04-05T23:27:00.842Z,714.75
2023-04-05T23:32:02.786Z,716.58
2023-04-05T23:37:05.786Z,710.30
2023-04-05T23:42:07.970Z,710.15
2023-04-05T23:47:09.843Z,713.78
2023-04-05T23:52:11.753Z,714.85
2023-04-05T23:57:13.624Z,709.58
